EDHK/KEL METAR and TAF weather

Enter ICAO airport designator
Station Type Date Time Source
EDHK METAR 2022/01/28 00:20 UTC NOAA

EDHK 280020Z AUTO 31020G32KT 9999 // BKN032/// 05/M00 Q1014


Station Type Date Time Source
EDHK Decoded METAR 2022/01/28 00:20 UTC NOAA

Kiel / Holtenau Civilian, Germany (EDHK) 54-23N 010-10E
Jan 27, 2022 - 07:20 PM EST / 2022.01.28 0020 UTC
Wind: from the NW (310 degrees) at 23 MPH (20 KT) gusting to 37 MPH (32 KT):0
Visibility: greater than 7 mile(s):0
Sky conditions: mostly cloudy
Temperature: 41 F (5 C)
Dew Point: 32 F (0 C)
Relative Humidity: 70%
Pressure (altimeter): 29.94 in. Hg (1014 hPa)
ob: EDHK 280020Z AUTO 31020G32KT 9999 // BKN032/// 05/M00 Q1014
cycle: 0

Station Type Date Time Source
EDHK TAF 2013/08/11 06:39 UTC NOAA

TAF EDHK 110633Z 1106/1118 24005KT 9999 SCT030
BECMG 1106/1109 25010KT
TEMPO 1106/1118 27015G25KT 4500 SHRA BKN012CB

Example: see airport list